<?xml version='1.0' encoding='UTF-8'?>
<gpx version="1.1" creator="https://www.komoot.de" xmlns="http://www.topografix.com/GPX/1/1" xmlns:xsi="http://www.w3.org/2001/XMLSchema-instance" xsi:schemaLocation="http://www.topografix.com/GPX/1/1 http://www.topografix.com/GPX/1/1/gpx.xsd">
  <metadata>
    <name>Neuilly ACBB</name>
    <author>
      <link href="https://www.komoot.de">
        <text>komoot</text>
        <type>text/html</type>
      </link>
    </author>
  </metadata>
  <trk>
    <name>Neuilly ACBB</name>
    <trkseg>
      <trkpt lat="48.884784" lon="2.269284">
        <ele>42.443286</ele>
        <time>2023-10-05T09:52:08.981Z</time>
      </trkpt>
      <trkpt lat="48.884583" lon="2.269124">
        <ele>42.443286</ele>
        <time>2023-10-05T09:52:13.985Z</time>
      </trkpt>
      <trkpt lat="48.884439" lon="2.269026">
        <ele>42.443286</ele>
        <time>2023-10-05T09:52:17.623Z</time>
      </trkpt>
      <trkpt lat="48.884462" lon="2.268923">
        <ele>42.443286</ele>
        <time>2023-10-05T09:52:19.334Z</time>
      </trkpt>
      <trkpt lat="48.884560" lon="2.268487">
        <ele>42.443286</ele>
        <time>2023-10-05T09:52:25.990Z</time>
      </trkpt>
      <trkpt lat="48.884586" lon="2.268373">
        <ele>42.443286</ele>
        <time>2023-10-05T09:52:27.813Z</time>
      </trkpt>
      <trkpt lat="48.884663" lon="2.268043">
        <ele>42.670119</ele>
        <time>2023-10-05T09:52:32.610Z</time>
      </trkpt>
      <trkpt lat="48.884795" lon="2.267467">
        <ele>43.207107</ele>
        <time>2023-10-05T09:52:41.390Z</time>
      </trkpt>
      <trkpt lat="48.884959" lon="2.266741">
        <ele>43.882894</ele>
        <time>2023-10-05T09:52:52.166Z</time>
      </trkpt>
      <trkpt lat="48.884904" lon="2.266710">
        <ele>43.961421</ele>
        <time>2023-10-05T09:52:53.168Z</time>
      </trkpt>
      <trkpt lat="48.884850" lon="2.266678">
        <ele>44.039009</ele>
        <time>2023-10-05T09:52:54.198Z</time>
      </trkpt>
      <trkpt lat="48.883946" lon="2.265544">
        <ele>44.632532</ele>
        <time>2023-10-05T09:53:15.636Z</time>
      </trkpt>
      <trkpt lat="48.883520" lon="2.265191">
        <ele>44.444781</ele>
        <time>2023-10-05T09:53:21.626Z</time>
      </trkpt>
      <trkpt lat="48.883709" lon="2.264575">
        <ele>44.271789</ele>
        <time>2023-10-05T09:53:26.990Z</time>
      </trkpt>
      <trkpt lat="48.883719" lon="2.264545">
        <ele>44.263230</ele>
        <time>2023-10-05T09:53:27.291Z</time>
      </trkpt>
      <trkpt lat="48.884330" lon="2.262609">
        <ele>43.380589</ele>
        <time>2023-10-05T09:53:44.766Z</time>
      </trkpt>
      <trkpt lat="48.884387" lon="2.262421">
        <ele>43.287512</ele>
        <time>2023-10-05T09:53:46.481Z</time>
      </trkpt>
      <trkpt lat="48.884424" lon="2.262302">
        <ele>43.228330</ele>
        <time>2023-10-05T09:53:47.611Z</time>
      </trkpt>
      <trkpt lat="48.884460" lon="2.262181">
        <ele>43.168619</ele>
        <time>2023-10-05T09:53:48.736Z</time>
      </trkpt>
      <trkpt lat="48.884854" lon="2.260948">
        <ele>42.960196</ele>
        <time>2023-10-05T09:54:01.614Z</time>
      </trkpt>
      <trkpt lat="48.884959" lon="2.260633">
        <ele>42.975005</ele>
        <time>2023-10-05T09:54:05.700Z</time>
      </trkpt>
      <trkpt lat="48.884944" lon="2.260441">
        <ele>42.983112</ele>
        <time>2023-10-05T09:54:07.893Z</time>
      </trkpt>
      <trkpt lat="48.884868" lon="2.260282">
        <ele>42.991355</ele>
        <time>2023-10-05T09:54:10.822Z</time>
      </trkpt>
      <trkpt lat="48.884746" lon="2.260215">
        <ele>42.999626</ele>
        <time>2023-10-05T09:54:13.695Z</time>
      </trkpt>
      <trkpt lat="48.884621" lon="2.260264">
        <ele>43.007858</ele>
        <time>2023-10-05T09:54:16.217Z</time>
      </trkpt>
      <trkpt lat="48.884539" lon="2.260417">
        <ele>43.016135</ele>
        <time>2023-10-05T09:54:18.694Z</time>
      </trkpt>
      <trkpt lat="48.884434" lon="2.260368">
        <ele>43.023139</ele>
        <time>2023-10-05T09:54:20.319Z</time>
      </trkpt>
      <trkpt lat="48.883753" lon="2.260045">
        <ele>42.957501</ele>
        <time>2023-10-05T09:54:30.575Z</time>
      </trkpt>
      <trkpt lat="48.883262" lon="2.259812">
        <ele>42.862568</ele>
        <time>2023-10-05T09:54:37.881Z</time>
      </trkpt>
      <trkpt lat="48.883001" lon="2.259688">
        <ele>42.812099</ele>
        <time>2023-10-05T09:54:42.171Z</time>
      </trkpt>
      <trkpt lat="48.882898" lon="2.259639">
        <ele>42.792180</ele>
        <time>2023-10-05T09:54:43.738Z</time>
      </trkpt>
      <trkpt lat="48.882179" lon="2.259298">
        <ele>42.463855</ele>
        <time>2023-10-05T09:54:54.114Z</time>
      </trkpt>
      <trkpt lat="48.881527" lon="2.258989">
        <ele>41.903530</ele>
        <time>2023-10-05T09:55:02.212Z</time>
      </trkpt>
      <trkpt lat="48.881478" lon="2.258965">
        <ele>41.861293</ele>
        <time>2023-10-05T09:55:02.890Z</time>
      </trkpt>
      <trkpt lat="48.881450" lon="2.258952">
        <ele>41.837273</ele>
        <time>2023-10-05T09:55:03.279Z</time>
      </trkpt>
      <trkpt lat="48.881049" lon="2.258653">
        <ele>41.470840</ele>
        <time>2023-10-05T09:55:08.996Z</time>
      </trkpt>
      <trkpt lat="48.880486" lon="2.258389">
        <ele>41.033457</ele>
        <time>2023-10-05T09:55:16.400Z</time>
      </trkpt>
      <trkpt lat="48.880417" lon="2.258356">
        <ele>40.985257</ele>
        <time>2023-10-05T09:55:17.287Z</time>
      </trkpt>
      <trkpt lat="48.880316" lon="2.258298">
        <ele>40.913315</ele>
        <time>2023-10-05T09:55:18.603Z</time>
      </trkpt>
      <trkpt lat="48.880189" lon="2.258231">
        <ele>40.823738</ele>
        <time>2023-10-05T09:55:20.217Z</time>
      </trkpt>
      <trkpt lat="48.879928" lon="2.258141">
        <ele>40.645401</ele>
        <time>2023-10-05T09:55:23.389Z</time>
      </trkpt>
      <trkpt lat="48.877318" lon="2.256790">
        <ele>39.380787</ele>
        <time>2023-10-05T09:56:00.781Z</time>
      </trkpt>
      <trkpt lat="48.876979" lon="2.256619">
        <ele>39.273385</ele>
        <time>2023-10-05T09:56:06.135Z</time>
      </trkpt>
      <trkpt lat="48.876826" lon="2.256493">
        <ele>39.221062</ele>
        <time>2023-10-05T09:56:08.509Z</time>
      </trkpt>
      <trkpt lat="48.876760" lon="2.256469">
        <ele>39.200655</ele>
        <time>2023-10-05T09:56:09.468Z</time>
      </trkpt>
      <trkpt lat="48.876038" lon="2.256146">
        <ele>38.974343</ele>
        <time>2023-10-05T09:56:19.880Z</time>
      </trkpt>
      <trkpt lat="48.875779" lon="2.256018">
        <ele>38.892449</ele>
        <time>2023-10-05T09:56:23.437Z</time>
      </trkpt>
      <trkpt lat="48.875668" lon="2.255964">
        <ele>38.857404</ele>
        <time>2023-10-05T09:56:24.972Z</time>
      </trkpt>
      <trkpt lat="48.875600" lon="2.255929">
        <ele>38.823087</ele>
        <time>2023-10-05T09:56:25.959Z</time>
      </trkpt>
      <trkpt lat="48.874449" lon="2.255328">
        <ele>38.172070</ele>
        <time>2023-10-05T09:56:42.302Z</time>
      </trkpt>
      <trkpt lat="48.874340" lon="2.255216">
        <ele>38.101695</ele>
        <time>2023-10-05T09:56:43.954Z</time>
      </trkpt>
      <trkpt lat="48.874251" lon="2.255124">
        <ele>38.044123</ele>
        <time>2023-10-05T09:56:45.321Z</time>
      </trkpt>
      <trkpt lat="48.874214" lon="2.255027">
        <ele>38.004670</ele>
        <time>2023-10-05T09:56:46.256Z</time>
      </trkpt>
      <trkpt lat="48.874093" lon="2.254966">
        <ele>37.936477</ele>
        <time>2023-10-05T09:56:47.813Z</time>
      </trkpt>
      <trkpt lat="48.874012" lon="2.255030">
        <ele>37.889629</ele>
        <time>2023-10-05T09:56:48.926Z</time>
      </trkpt>
      <trkpt lat="48.873891" lon="2.254972">
        <ele>37.879321</ele>
        <time>2023-10-05T09:56:50.523Z</time>
      </trkpt>
      <trkpt lat="48.873839" lon="2.254946">
        <ele>37.874873</ele>
        <time>2023-10-05T09:56:51.211Z</time>
      </trkpt>
      <trkpt lat="48.873746" lon="2.254901">
        <ele>37.866944</ele>
        <time>2023-10-05T09:56:52.418Z</time>
      </trkpt>
      <trkpt lat="48.873678" lon="2.254869">
        <ele>37.861161</ele>
        <time>2023-10-05T09:56:53.284Z</time>
      </trkpt>
      <trkpt lat="48.871983" lon="2.253751">
        <ele>38.200489</ele>
        <time>2023-10-05T09:57:21.315Z</time>
      </trkpt>
      <trkpt lat="48.871918" lon="2.253709">
        <ele>38.280367</ele>
        <time>2023-10-05T09:57:22.795Z</time>
      </trkpt>
      <trkpt lat="48.870989" lon="2.253094">
        <ele>39.426332</ele>
        <time>2023-10-05T09:57:43.342Z</time>
      </trkpt>
      <trkpt lat="48.869884" lon="2.252372">
        <ele>41.118227</ele>
        <time>2023-10-05T09:58:09.546Z</time>
      </trkpt>
      <trkpt lat="48.869147" lon="2.251878">
        <ele>42.328728</ele>
        <time>2023-10-05T09:58:25.810Z</time>
      </trkpt>
      <trkpt lat="48.867873" lon="2.251037">
        <ele>44.248860</ele>
        <time>2023-10-05T09:58:54.308Z</time>
      </trkpt>
      <trkpt lat="48.867786" lon="2.250982">
        <ele>44.378225</ele>
        <time>2023-10-05T09:58:56.201Z</time>
      </trkpt>
      <trkpt lat="48.867665" lon="2.250889">
        <ele>44.564380</ele>
        <time>2023-10-05T09:58:58.967Z</time>
      </trkpt>
      <trkpt lat="48.867409" lon="2.250723">
        <ele>44.946499</ele>
        <time>2023-10-05T09:59:04.486Z</time>
      </trkpt>
      <trkpt lat="48.867330" lon="2.250672">
        <ele>45.049440</ele>
        <time>2023-10-05T09:59:06.232Z</time>
      </trkpt>
      <trkpt lat="48.865217" lon="2.249266">
        <ele>47.490092</ele>
        <time>2023-10-05T09:59:51.276Z</time>
      </trkpt>
      <trkpt lat="48.865124" lon="2.249200">
        <ele>47.558500</ele>
        <time>2023-10-05T09:59:53.156Z</time>
      </trkpt>
      <trkpt lat="48.864881" lon="2.249055">
        <ele>47.732494</ele>
        <time>2023-10-05T09:59:57.644Z</time>
      </trkpt>
      <trkpt lat="48.864789" lon="2.248995">
        <ele>47.799219</ele>
        <time>2023-10-05T09:59:59.413Z</time>
      </trkpt>
      <trkpt lat="48.863449" lon="2.248112">
        <ele>48.166768</ele>
        <time>2023-10-05T10:00:22.517Z</time>
      </trkpt>
      <trkpt lat="48.863380" lon="2.248067">
        <ele>48.153303</ele>
        <time>2023-10-05T10:00:23.552Z</time>
      </trkpt>
      <trkpt lat="48.861817" lon="2.247029">
        <ele>47.818115</ele>
        <time>2023-10-05T10:00:46.078Z</time>
      </trkpt>
      <trkpt lat="48.860652" lon="2.246257">
        <ele>47.729883</ele>
        <time>2023-10-05T10:01:04.323Z</time>
      </trkpt>
      <trkpt lat="48.860370" lon="2.246070">
        <ele>48.009765</ele>
        <time>2023-10-05T10:01:09.620Z</time>
      </trkpt>
      <trkpt lat="48.858657" lon="2.244934">
        <ele>49.482057</ele>
        <time>2023-10-05T10:01:46.492Z</time>
      </trkpt>
      <trkpt lat="48.858637" lon="2.244924">
        <ele>49.492465</ele>
        <time>2023-10-05T10:01:46.894Z</time>
      </trkpt>
      <trkpt lat="48.858567" lon="2.244874">
        <ele>49.530700</ele>
        <time>2023-10-05T10:01:48.375Z</time>
      </trkpt>
      <trkpt lat="48.858497" lon="2.244828">
        <ele>49.568400</ele>
        <time>2023-10-05T10:01:49.835Z</time>
      </trkpt>
      <trkpt lat="48.858474" lon="2.244813">
        <ele>49.580773</ele>
        <time>2023-10-05T10:01:50.324Z</time>
      </trkpt>
      <trkpt lat="48.856637" lon="2.243594">
        <ele>49.954581</ele>
        <time>2023-10-05T10:02:20.034Z</time>
      </trkpt>
      <trkpt lat="48.855955" lon="2.243141">
        <ele>49.841144</ele>
        <time>2023-10-05T10:02:30.115Z</time>
      </trkpt>
      <trkpt lat="48.854832" lon="2.242397">
        <ele>49.564737</ele>
        <time>2023-10-05T10:02:47.457Z</time>
      </trkpt>
      <trkpt lat="48.853961" lon="2.241826">
        <ele>49.047881</ele>
        <time>2023-10-05T10:03:00.881Z</time>
      </trkpt>
      <trkpt lat="48.853504" lon="2.241530">
        <ele>48.396199</ele>
        <time>2023-10-05T10:03:07.246Z</time>
      </trkpt>
      <trkpt lat="48.850209" lon="2.241918">
        <ele>42.512934</ele>
        <time>2023-10-05T10:03:43.529Z</time>
      </trkpt>
      <trkpt lat="48.848948" lon="2.242068">
        <ele>40.038927</ele>
        <time>2023-10-05T10:03:57.295Z</time>
      </trkpt>
      <trkpt lat="48.848683" lon="2.242100">
        <ele>39.883941</ele>
        <time>2023-10-05T10:04:00.384Z</time>
      </trkpt>
      <trkpt lat="48.848486" lon="2.242075">
        <ele>39.838961</ele>
        <time>2023-10-05T10:04:02.763Z</time>
      </trkpt>
      <trkpt lat="48.848381" lon="2.242060">
        <ele>39.814965</ele>
        <time>2023-10-05T10:04:04.096Z</time>
      </trkpt>
      <trkpt lat="48.848297" lon="2.241907">
        <ele>39.785131</ele>
        <time>2023-10-05T10:04:05.760Z</time>
      </trkpt>
      <trkpt lat="48.848159" lon="2.241747">
        <ele>39.745637</ele>
        <time>2023-10-05T10:04:08.144Z</time>
      </trkpt>
      <trkpt lat="48.848001" lon="2.241751">
        <ele>39.709682</ele>
        <time>2023-10-05T10:04:10.447Z</time>
      </trkpt>
      <trkpt lat="48.847889" lon="2.241488">
        <ele>39.662777</ele>
        <time>2023-10-05T10:04:13.726Z</time>
      </trkpt>
      <trkpt lat="48.847808" lon="2.241318">
        <ele>39.631352</ele>
        <time>2023-10-05T10:04:15.991Z</time>
      </trkpt>
      <trkpt lat="48.847671" lon="2.241189">
        <ele>39.594681</ele>
        <time>2023-10-05T10:04:18.770Z</time>
      </trkpt>
      <trkpt lat="48.847065" lon="2.239825">
        <ele>40.184659</ele>
        <time>2023-10-05T10:04:38.916Z</time>
      </trkpt>
      <trkpt lat="48.847005" lon="2.239691">
        <ele>40.276724</ele>
        <time>2023-10-05T10:04:40.942Z</time>
      </trkpt>
      <trkpt lat="48.846615" lon="2.238702">
        <ele>40.931649</ele>
        <time>2023-10-05T10:04:54.980Z</time>
      </trkpt>
      <trkpt lat="48.846584" lon="2.238626">
        <ele>40.982440</ele>
        <time>2023-10-05T10:04:56.034Z</time>
      </trkpt>
      <trkpt lat="48.846544" lon="2.238530">
        <ele>41.046983</ele>
        <time>2023-10-05T10:04:57.398Z</time>
      </trkpt>
      <trkpt lat="48.846482" lon="2.238397">
        <ele>41.077867</ele>
        <time>2023-10-05T10:04:59.344Z</time>
      </trkpt>
      <trkpt lat="48.846107" lon="2.237576">
        <ele>41.100668</ele>
        <time>2023-10-05T10:05:10.672Z</time>
      </trkpt>
      <trkpt lat="48.845931" lon="2.237162">
        <ele>41.111913</ele>
        <time>2023-10-05T10:05:15.649Z</time>
      </trkpt>
      <trkpt lat="48.845873" lon="2.237023">
        <ele>41.115669</ele>
        <time>2023-10-05T10:05:17.286Z</time>
      </trkpt>
      <trkpt lat="48.845812" lon="2.236873">
        <ele>41.119692</ele>
        <time>2023-10-05T10:05:18.875Z</time>
      </trkpt>
      <trkpt lat="48.845640" lon="2.236468">
        <ele>41.130689</ele>
        <time>2023-10-05T10:05:23.261Z</time>
      </trkpt>
      <trkpt lat="48.845500" lon="2.236141">
        <ele>41.051181</ele>
        <time>2023-10-05T10:05:26.552Z</time>
      </trkpt>
      <trkpt lat="48.845029" lon="2.235095">
        <ele>39.766522</ele>
        <time>2023-10-05T10:05:36.154Z</time>
      </trkpt>
      <trkpt lat="48.844735" lon="2.234433">
        <ele>38.957015</ele>
        <time>2023-10-05T10:05:42.018Z</time>
      </trkpt>
      <trkpt lat="48.844694" lon="2.234347">
        <ele>38.849374</ele>
        <time>2023-10-05T10:05:42.779Z</time>
      </trkpt>
      <trkpt lat="48.844672" lon="2.234302">
        <ele>38.792552</ele>
        <time>2023-10-05T10:05:43.177Z</time>
      </trkpt>
      <trkpt lat="48.844636" lon="2.234224">
        <ele>38.695985</ele>
        <time>2023-10-05T10:05:43.848Z</time>
      </trkpt>
      <trkpt lat="48.844613" lon="2.234176">
        <ele>38.635801</ele>
        <time>2023-10-05T10:05:44.280Z</time>
      </trkpt>
      <trkpt lat="48.844450" lon="2.233830">
        <ele>38.284729</ele>
        <time>2023-10-05T10:05:47.324Z</time>
      </trkpt>
      <trkpt lat="48.844413" lon="2.233758">
        <ele>38.237752</ele>
        <time>2023-10-05T10:05:47.983Z</time>
      </trkpt>
      <trkpt lat="48.844338" lon="2.233603">
        <ele>38.138817</ele>
        <time>2023-10-05T10:05:49.421Z</time>
      </trkpt>
      <trkpt lat="48.844141" lon="2.233184">
        <ele>37.874006</ele>
        <time>2023-10-05T10:05:53.347Z</time>
      </trkpt>
      <trkpt lat="48.844022" lon="2.232929">
        <ele>37.713248</ele>
        <time>2023-10-05T10:05:55.873Z</time>
      </trkpt>
      <trkpt lat="48.843928" lon="2.232749">
        <ele>37.595079</ele>
        <time>2023-10-05T10:05:57.990Z</time>
      </trkpt>
      <trkpt lat="48.843689" lon="2.232401">
        <ele>37.336418</ele>
        <time>2023-10-05T10:06:02.512Z</time>
      </trkpt>
      <trkpt lat="48.843452" lon="2.232083">
        <ele>37.089355</ele>
        <time>2023-10-05T10:06:07.241Z</time>
      </trkpt>
      <trkpt lat="48.843409" lon="2.232026">
        <ele>37.044765</ele>
        <time>2023-10-05T10:06:08.170Z</time>
      </trkpt>
      <trkpt lat="48.843189" lon="2.231730">
        <ele>36.922328</ele>
        <time>2023-10-05T10:06:12.658Z</time>
      </trkpt>
      <trkpt lat="48.842798" lon="2.231199">
        <ele>36.811877</ele>
        <time>2023-10-05T10:06:20.575Z</time>
      </trkpt>
      <trkpt lat="48.842532" lon="2.230825">
        <ele>36.735547</ele>
        <time>2023-10-05T10:06:25.873Z</time>
      </trkpt>
      <trkpt lat="48.842394" lon="2.230856">
        <ele>36.706165</ele>
        <time>2023-10-05T10:06:27.829Z</time>
      </trkpt>
      <trkpt lat="48.841365" lon="2.231307">
        <ele>36.211857</ele>
        <time>2023-10-05T10:06:42.007Z</time>
      </trkpt>
      <trkpt lat="48.840609" lon="2.231592">
        <ele>35.617441</ele>
        <time>2023-10-05T10:06:51.060Z</time>
      </trkpt>
      <trkpt lat="48.840449" lon="2.231617">
        <ele>35.494697</ele>
        <time>2023-10-05T10:06:53.074Z</time>
      </trkpt>
      <trkpt lat="48.840314" lon="2.231622">
        <ele>35.391644</ele>
        <time>2023-10-05T10:06:54.862Z</time>
      </trkpt>
      <trkpt lat="48.839406" lon="2.231887">
        <ele>35.225676</ele>
        <time>2023-10-05T10:07:08.585Z</time>
      </trkpt>
      <trkpt lat="48.839032" lon="2.232025">
        <ele>35.234200</ele>
        <time>2023-10-05T10:07:14.430Z</time>
      </trkpt>
      <trkpt lat="48.838818" lon="2.232102">
        <ele>35.239071</ele>
        <time>2023-10-05T10:07:17.804Z</time>
      </trkpt>
      <trkpt lat="48.838541" lon="2.232154">
        <ele>35.245253</ele>
        <time>2023-10-05T10:07:22.042Z</time>
      </trkpt>
      <trkpt lat="48.836939" lon="2.232286">
        <ele>35.315933</ele>
        <time>2023-10-05T10:07:46.976Z</time>
      </trkpt>
      <trkpt lat="48.836564" lon="2.232312">
        <ele>35.333830</ele>
        <time>2023-10-05T10:07:51.995Z</time>
      </trkpt>
      <trkpt lat="48.836236" lon="2.232343">
        <ele>35.495703</ele>
        <time>2023-10-05T10:07:56.578Z</time>
      </trkpt>
      <trkpt lat="48.835629" lon="2.232430">
        <ele>35.840692</ele>
        <time>2023-10-05T10:08:06.049Z</time>
      </trkpt>
      <trkpt lat="48.834778" lon="2.232794">
        <ele>36.340942</ele>
        <time>2023-10-05T10:08:23.264Z</time>
      </trkpt>
      <trkpt lat="48.834376" lon="2.232972">
        <ele>36.764597</ele>
        <time>2023-10-05T10:08:30.898Z</time>
      </trkpt>
      <trkpt lat="48.834047" lon="2.233118">
        <ele>37.120142</ele>
        <time>2023-10-05T10:08:37.686Z</time>
      </trkpt>
      <trkpt lat="48.833803" lon="2.233228">
        <ele>37.384161</ele>
        <time>2023-10-05T10:08:42.891Z</time>
      </trkpt>
      <trkpt lat="48.833498" lon="2.233374">
        <ele>37.715882</ele>
        <time>2023-10-05T10:08:48.845Z</time>
      </trkpt>
      <trkpt lat="48.833393" lon="2.233424">
        <ele>37.830028</ele>
        <time>2023-10-05T10:08:50.749Z</time>
      </trkpt>
      <trkpt lat="48.833349" lon="2.233442">
        <ele>37.877297</ele>
        <time>2023-10-05T10:08:51.572Z</time>
      </trkpt>
      <trkpt lat="48.833167" lon="2.233516">
        <ele>38.072736</ele>
        <time>2023-10-05T10:08:55.201Z</time>
      </trkpt>
      <trkpt lat="48.833121" lon="2.233534">
        <ele>38.122011</ele>
        <time>2023-10-05T10:08:56.091Z</time>
      </trkpt>
      <trkpt lat="48.833074" lon="2.233554">
        <ele>38.172642</ele>
        <time>2023-10-05T10:08:56.916Z</time>
      </trkpt>
      <trkpt lat="48.832836" lon="2.233658">
        <ele>38.351484</ele>
        <time>2023-10-05T10:09:01.403Z</time>
      </trkpt>
      <trkpt lat="48.832058" lon="2.233994">
        <ele>38.878588</ele>
        <time>2023-10-05T10:09:16.147Z</time>
      </trkpt>
      <trkpt lat="48.831258" lon="2.234440">
        <ele>39.346146</ele>
        <time>2023-10-05T10:09:30.872Z</time>
      </trkpt>
      <trkpt lat="48.830933" lon="2.234622">
        <ele>39.102281</ele>
        <time>2023-10-05T10:09:35.859Z</time>
      </trkpt>
      <trkpt lat="48.830863" lon="2.234665">
        <ele>39.049122</ele>
        <time>2023-10-05T10:09:36.981Z</time>
      </trkpt>
      <trkpt lat="48.830792" lon="2.234708">
        <ele>38.995309</ele>
        <time>2023-10-05T10:09:37.970Z</time>
      </trkpt>
      <trkpt lat="48.830687" lon="2.234701">
        <ele>38.921314</ele>
        <time>2023-10-05T10:09:39.270Z</time>
      </trkpt>
      <trkpt lat="48.830183" lon="2.235013">
        <ele>38.538146</ele>
        <time>2023-10-05T10:09:45.692Z</time>
      </trkpt>
      <trkpt lat="48.829921" lon="2.235274">
        <ele>38.317562</ele>
        <time>2023-10-05T10:09:49.311Z</time>
      </trkpt>
      <trkpt lat="48.829799" lon="2.235421">
        <ele>38.207930</ele>
        <time>2023-10-05T10:09:51.187Z</time>
      </trkpt>
      <trkpt lat="48.829627" lon="2.235710">
        <ele>38.125422</ele>
        <time>2023-10-05T10:09:54.458Z</time>
      </trkpt>
      <trkpt lat="48.829439" lon="2.236121">
        <ele>38.125422</ele>
        <time>2023-10-05T10:09:58.656Z</time>
      </trkpt>
      <trkpt lat="48.829365" lon="2.236333">
        <ele>38.125422</ele>
        <time>2023-10-05T10:10:00.657Z</time>
      </trkpt>
      <trkpt lat="48.829243" lon="2.236684">
        <ele>38.125422</ele>
        <time>2023-10-05T10:10:04.371Z</time>
      </trkpt>
      <trkpt lat="48.829296" lon="2.236746">
        <ele>38.125422</ele>
        <time>2023-10-05T10:10:05.234Z</time>
      </trkpt>
      <trkpt lat="48.829404" lon="2.236454">
        <ele>38.125422</ele>
        <time>2023-10-05T10:10:08.502Z</time>
      </trkpt>
      <trkpt lat="48.829498" lon="2.236230">
        <ele>38.125422</ele>
        <time>2023-10-05T10:10:11.071Z</time>
      </trkpt>
      <trkpt lat="48.829683" lon="2.235783">
        <ele>38.125422</ele>
        <time>2023-10-05T10:10:17.176Z</time>
      </trkpt>
      <trkpt lat="48.829961" lon="2.235360">
        <ele>38.125422</ele>
        <time>2023-10-05T10:10:25.590Z</time>
      </trkpt>
      <trkpt lat="48.830092" lon="2.235231">
        <ele>38.125422</ele>
        <time>2023-10-05T10:10:29.500Z</time>
      </trkpt>
    </trkseg>
  </trk>
</gpx>